createdAt,value
2022-10-06T00:00:32.588Z,5.07
2022-10-06T00:03:01.908Z,5.47
2022-10-06T00:05:32.059Z,4.80
2022-10-06T00:08:02.348Z,5.00
2022-10-06T00:10:32.583Z,5.20
2022-10-06T00:13:01.850Z,5.15
2022-10-06T00:15:33.701Z,6.05
2022-10-06T00:18:03.558Z,6.13
2022-10-06T00:20:33.313Z,5.50
2022-10-06T00:23:02.147Z,5.93
2022-10-06T00:25:30.882Z,6.13
2022-10-06T00:28:00.024Z,5.90
2022-10-06T00:30:30.548Z,5.35
2022-10-06T00:33:02.792Z,5.28
2022-10-06T00:35:34.615Z,5.03
2022-10-06T00:38:04.385Z,4.75
2022-10-06T00:40:34.728Z,4.93
2022-10-06T00:43:07.302Z,5.03
2022-10-06T00:45:43.528Z,4.55
2022-10-06T00:48:27.104Z,5.20
2022-10-06T00:51:00.276Z,4.93
2022-10-06T00:53:31.384Z,4.75
2022-10-06T00:56:01.841Z,5.07
2022-10-06T00:58:31.290Z,5.10
2022-10-06T01:01:00.956Z,5.00
2022-10-06T01:03:36.861Z,5.65
2022-10-06T01:06:07.604Z,4.70
2022-10-06T01:08:38.412Z,5.18
2022-10-06T01:11:14.038Z,5.40
2022-10-06T01:13:47.583Z,4.70
2022-10-06T01:16:23.571Z,5.38
2022-10-06T01:18:55.303Z,5.40
2022-10-06T01:21:39.607Z,5.80
2022-10-06T01:24:10.766Z,6.18
2022-10-06T01:26:45.858Z,5.82
2022-10-06T01:29:16.325Z,10.15
2022-10-06T01:31:45.696Z,5.80
2022-10-06T01:34:14.981Z,14.10
2022-10-06T01:36:45.602Z,55.63
2022-10-06T01:39:14.925Z,62.03
2022-10-06T01:41:44.343Z,60.75
2022-10-06T01:44:13.843Z,13.85
2022-10-06T01:46:43.302Z,7.78
2022-10-06T01:49:12.046Z,5.60
2022-10-06T01:51:41.183Z,6.70
2022-10-06T01:54:10.334Z,5.65
2022-10-06T01:56:39.757Z,6.00
2022-10-06T01:59:08.929Z,6.53
2022-10-06T02:01:38.275Z,6.13
2022-10-06T02:04:07.596Z,6.17
2022-10-06T02:06:36.711Z,6.88
2022-10-06T02:09:05.841Z,6.07
2022-10-06T02:11:34.732Z,5.67
2022-10-06T02:14:06.715Z,5.28
2022-10-06T02:16:37.366Z,5.53
2022-10-06T02:19:07.432Z,5.43
2022-10-06T02:21:36.523Z,5.45
2022-10-06T02:24:05.866Z,5.25
2022-10-06T02:26:35.026Z,4.97
2022-10-06T02:29:04.065Z,5.27
2022-10-06T02:31:33.126Z,5.35
2022-10-06T02:34:03.305Z,6.07
2022-10-06T02:36:32.393Z,5.20
2022-10-06T02:39:01.586Z,5.57
2022-10-06T02:41:30.968Z,5.70
2022-10-06T02:43:59.982Z,5.97
2022-10-06T02:46:29.538Z,5.60
2022-10-06T02:48:58.871Z,5.05
2022-10-06T02:51:28.509Z,5.15
2022-10-06T02:53:57.202Z,5.30
2022-10-06T02:56:27.521Z,5.35
2022-10-06T02:58:58.068Z,5.50
2022-10-06T03:01:31.040Z,5.65
2022-10-06T03:04:04.956Z,5.78
2022-10-06T03:06:33.997Z,5.05
2022-10-06T03:09:23.651Z,5.45
2022-10-06T03:11:54.089Z,5.07
2022-10-06T03:14:43.356Z,5.75
2022-10-06T03:17:15.759Z,5.10
2022-10-06T03:19:52.759Z,4.55
2022-10-06T03:22:21.891Z,5.32
2022-10-06T03:24:53.974Z,5.00
2022-10-06T03:27:23.661Z,5.80
2022-10-06T03:29:55.298Z,4.88
2022-10-06T03:32:26.669Z,5.10
2022-10-06T03:34:55.835Z,5.75
2022-10-06T03:37:24.923Z,5.43
2022-10-06T03:39:54.330Z,5.72
2022-10-06T03:42:23.668Z,5.60
2022-10-06T03:44:55.425Z,6.00
2022-10-06T03:47:25.026Z,5.32
2022-10-06T03:49:54.140Z,5.30
2022-10-06T03:52:26.047Z,6.20
2022-10-06T03:54:57.060Z,5.85
2022-10-06T03:57:26.255Z,5.70
2022-10-06T04:00:01.346Z,5.13
2022-10-06T04:02:41.367Z,5.50
2022-10-06T04:05:11.146Z,5.60
2022-10-06T04:07:40.163Z,5.15
2022-10-06T04:10:10.866Z,5.93
2022-10-06T04:12:40.102Z,5.65
2022-10-06T04:15:09.225Z,6.10
2022-10-06T04:17:38.870Z,6.90
2022-10-06T04:20:08.387Z,7.80
2022-10-06T04:22:37.648Z,6.70
2022-10-06T04:25:07.642Z,6.10
2022-10-06T04:27:37.058Z,7.07
2022-10-06T04:30:13.723Z,6.18
2022-10-06T04:32:43.729Z,6.43
2022-10-06T04:35:13.376Z,6.53
2022-10-06T04:37:42.872Z,6.75
2022-10-06T04:40:11.869Z,6.53
2022-10-06T04:42:41.364Z,6.28
2022-10-06T04:45:15.246Z,6.93
2022-10-06T04:47:45.364Z,6.68
2022-10-06T04:50:14.793Z,7.22
2022-10-06T04:53:03.749Z,7.80
2022-10-06T04:55:33.734Z,7.70
2022-10-06T04:58:02.947Z,7.28
2022-10-06T05:00:32.278Z,7.20
2022-10-06T05:03:01.090Z,7.53
2022-10-06T05:05:30.394Z,7.57
2022-10-06T05:07:59.242Z,7.10
2022-10-06T05:10:29.449Z,7.50
2022-10-06T05:12:58.914Z,7.70
2022-10-06T05:15:30.386Z,7.53
2022-10-06T05:18:00.071Z,7.75
2022-10-06T05:20:28.803Z,7.20
2022-10-06T05:22:58.628Z,6.88
2022-10-06T05:25:27.678Z,8.15
2022-10-06T05:27:57.338Z,7.20
2022-10-06T05:30:26.396Z,7.35
2022-10-06T05:32:55.655Z,6.97
2022-10-06T05:35:25.820Z,7.43
2022-10-06T05:37:56.707Z,6.88
2022-10-06T05:40:26.175Z,7.25
2022-10-06T05:42:57.537Z,7.20
2022-10-06T05:45:26.846Z,7.43
2022-10-06T05:47:55.891Z,7.18
2022-10-06T05:50:25.887Z,7.18
2022-10-06T05:52:56.371Z,7.60
2022-10-06T05:55:25.694Z,7.25
2022-10-06T05:57:56.403Z,7.70
2022-10-06T06:00:25.768Z,7.40
2022-10-06T06:02:55.546Z,8.27
2022-10-06T06:05:24.934Z,8.48
2022-10-06T06:07:53.599Z,7.60
2022-10-06T06:10:22.926Z,8.07
2022-10-06T06:12:52.626Z,7.28
2022-10-06T06:15:53.582Z,7.95
2022-10-06T06:18:22.647Z,7.40
2022-10-06T06:21:03.642Z,7.32
2022-10-06T06:23:35.694Z,7.68
2022-10-06T06:26:13.752Z,7.90
2022-10-06T06:28:49.113Z,8.20
2022-10-06T06:31:23.785Z,7.95
2022-10-06T06:33:54.751Z,8.73
2022-10-06T06:36:47.807Z,7.95
2022-10-06T06:39:20.628Z,7.93
2022-10-06T06:41:51.655Z,8.90
2022-10-06T06:44:52.643Z,8.10
2022-10-06T06:47:36.824Z,8.48
2022-10-06T06:50:11.566Z,9.00
2022-10-06T06:52:42.813Z,8.40
2022-10-06T06:55:15.806Z,7.83
2022-10-06T06:57:47.847Z,7.55
2022-10-06T07:00:18.262Z,7.60
2022-10-06T07:02:49.326Z,8.45
2022-10-06T07:05:18.470Z,7.70
2022-10-06T07:07:48.397Z,8.07
2022-10-06T07:10:17.891Z,8.33
2022-10-06T07:12:47.987Z,8.35
2022-10-06T07:15:35.457Z,8.45
2022-10-06T07:18:23.075Z,7.77
2022-10-06T07:21:10.754Z,8.53
2022-10-06T07:23:57.898Z,7.53
2022-10-06T07:26:31.990Z,7.88
2022-10-06T07:29:01.437Z,7.25
2022-10-06T07:31:34.504Z,8.13
2022-10-06T07:34:05.905Z,7.73
2022-10-06T07:36:35.742Z,7.63
2022-10-06T07:39:06.362Z,8.45
2022-10-06T07:41:35.554Z,8.25
2022-10-06T07:44:08.202Z,8.82
2022-10-06T07:46:39.211Z,7.35
2022-10-06T07:49:16.240Z,7.97
2022-10-06T07:51:46.462Z,8.32
2022-10-06T07:54:15.520Z,7.78
2022-10-06T07:56:47.713Z,8.35
2022-10-06T07:59:22.548Z,7.72
2022-10-06T08:01:53.416Z,8.63
2022-10-06T08:04:22.866Z,7.43
2022-10-06T08:06:51.627Z,7.88
2022-10-06T08:09:20.806Z,8.25
2022-10-06T08:11:50.145Z,8.70
2022-10-06T08:14:19.176Z,8.88
2022-10-06T08:16:48.325Z,8.93
2022-10-06T08:19:20.656Z,7.97
2022-10-06T08:21:49.619Z,10.85
2022-10-06T08:24:20.627Z,8.63
2022-10-06T08:26:50.787Z,8.52
2022-10-06T08:29:20.122Z,8.00
2022-10-06T08:31:49.328Z,7.72
2022-10-06T08:34:18.220Z,8.18
2022-10-06T08:37:08.698Z,8.27
2022-10-06T08:39:36.031Z,9.20
2022-10-06T08:42:04.931Z,8.73
2022-10-06T08:44:45.871Z,9.55
2022-10-06T08:47:25.645Z,9.27
2022-10-06T08:49:58.412Z,8.73
2022-10-06T08:52:53.263Z,9.18
2022-10-06T08:55:55.637Z,9.30
2022-10-06T08:58:41.616Z,10.35
2022-10-06T09:01:19.574Z,9.77
2022-10-06T09:03:53.211Z,9.93
2022-10-06T09:06:39.078Z,10.57
2022-10-06T09:09:32.915Z,10.90
2022-10-06T09:12:22.198Z,10.52
2022-10-06T09:15:07.208Z,10.18
2022-10-06T09:17:41.794Z,10.10
2022-10-06T09:20:29.705Z,11.00
2022-10-06T09:22:59.605Z,10.05
2022-10-06T09:25:31.441Z,9.70
2022-10-06T09:28:04.316Z,9.90
2022-10-06T09:30:33.548Z,10.25
2022-10-06T09:33:06.553Z,9.73
2022-10-06T09:35:35.656Z,10.18
2022-10-06T09:38:08.943Z,10.45
2022-10-06T09:40:39.988Z,11.02
2022-10-06T09:43:22.545Z,9.73
2022-10-06T09:45:52.867Z,9.25
2022-10-06T09:48:27.216Z,10.45
2022-10-06T09:51:08.243Z,10.23
2022-10-06T09:53:40.406Z,9.98
2022-10-06T09:56:20.746Z,10.20
2022-10-06T09:58:58.689Z,10.50
2022-10-06T10:01:33.194Z,9.65
2022-10-06T10:04:19.902Z,8.82
2022-10-06T10:06:50.089Z,9.27
2022-10-06T10:09:25.831Z,8.30
2022-10-06T10:12:29.688Z,8.07
2022-10-06T10:15:14.159Z,7.47
2022-10-06T10:18:17.840Z,7.68
2022-10-06T10:21:09.462Z,7.85
2022-10-06T10:23:56.399Z,8.38
2022-10-06T10:26:44.846Z,7.90
2022-10-06T10:29:39.297Z,7.50
2022-10-06T10:32:54.646Z,7.32
2022-10-06T10:35:38.727Z,8.00
2022-10-06T10:38:17.796Z,8.45
2022-10-06T10:41:14.338Z,6.50
2022-10-06T10:43:52.708Z,6.53
2022-10-06T10:46:35.551Z,6.22
2022-10-06T10:49:16.570Z,6.95
2022-10-06T10:51:54.946Z,6.13
2022-10-06T10:54:27.704Z,6.20
2022-10-06T10:56:56.860Z,6.57
2022-10-06T10:59:35.171Z,6.88
2022-10-06T11:02:22.026Z,7.07
2022-10-06T11:04:59.070Z,6.38
2022-10-06T11:08:14.558Z,7.05
2022-10-06T11:10:52.018Z,6.55
2022-10-06T11:13:32.386Z,6.45
2022-10-06T11:16:11.553Z,5.70
2022-10-06T11:19:10.699Z,5.95
2022-10-06T11:21:46.276Z,6.18
2022-10-06T11:24:41.345Z,7.55
2022-10-06T11:27:37.506Z,6.30
2022-10-06T11:30:15.874Z,6.15
2022-10-06T11:33:10.707Z,6.25
2022-10-06T11:35:43.972Z,8.07
2022-10-06T11:38:57.906Z,7.80
2022-10-06T11:41:50.507Z,7.30
2022-10-06T11:44:48.146Z,6.72
2022-10-06T11:47:35.091Z,6.97
2022-10-06T11:50:38.847Z,6.68
2022-10-06T11:53:38.367Z,6.97
2022-10-06T11:56:19.837Z,7.35
2022-10-06T11:58:58.015Z,6.68
2022-10-06T12:01:37.556Z,6.88
2022-10-06T12:04:09.855Z,7.15
2022-10-06T12:06:48.153Z,6.78
2022-10-06T12:09:29.640Z,6.40
2022-10-06T12:12:18.922Z,7.00
2022-10-06T12:18:15.075Z,8.88
2022-10-06T12:21:07.293Z,8.10
2022-10-06T12:23:56.723Z,8.82
2022-10-06T12:26:38.040Z,7.43
2022-10-06T12:29:42.809Z,7.88
2022-10-06T12:32:44.467Z,8.13
2022-10-06T12:35:41.767Z,8.07
2022-10-06T12:38:33.122Z,7.22
2022-10-06T12:41:04.007Z,7.35
2022-10-06T12:43:49.736Z,8.10
2022-10-06T12:46:44.715Z,7.53
2022-10-06T12:49:41.626Z,6.72
2022-10-06T12:52:19.756Z,6.60
2022-10-06T12:54:58.913Z,5.72
2022-10-06T12:57:31.702Z,5.75
2022-10-06T13:00:00.710Z,5.30
2022-10-06T13:02:30.156Z,5.70
2022-10-06T13:05:03.989Z,5.00
2022-10-06T13:07:35.426Z,5.93
2022-10-06T13:10:16.758Z,5.05
2022-10-06T13:12:51.566Z,4.83
2022-10-06T13:18:24.311Z,4.90
2022-10-06T13:20:59.366Z,5.20
2022-10-06T13:23:39.988Z,4.65
2022-10-06T13:26:16.502Z,4.78
2022-10-06T13:28:45.767Z,4.50
2022-10-06T13:31:23.956Z,4.55
2022-10-06T13:34:01.320Z,4.97
2022-10-06T13:36:35.048Z,5.47
2022-10-06T13:39:20.927Z,4.60
2022-10-06T13:41:52.060Z,4.93
2022-10-06T13:44:28.405Z,4.55
2022-10-06T13:47:03.367Z,5.72
2022-10-06T13:49:57.745Z,5.40
2022-10-06T13:52:35.687Z,4.55
2022-10-06T13:55:15.206Z,4.35
2022-10-06T13:57:47.346Z,5.22
2022-10-06T14:00:22.474Z,4.43
2022-10-06T14:03:00.429Z,4.43
2022-10-06T14:05:39.326Z,4.60
2022-10-06T14:08:13.848Z,5.55
2022-10-06T14:11:01.108Z,5.15
2022-10-06T14:13:49.260Z,4.70
2022-10-06T14:16:27.182Z,4.67
2022-10-06T14:22:41.534Z,3.88
2022-10-06T14:25:16.708Z,4.57
2022-10-06T14:27:46.568Z,4.57
2022-10-06T14:30:34.886Z,4.20
2022-10-06T14:33:04.940Z,4.68
2022-10-06T14:35:35.825Z,4.65
2022-10-06T14:38:06.937Z,5.07
2022-10-06T14:40:36.211Z,4.63
2022-10-06T14:46:33.353Z,4.60
2022-10-06T14:49:11.367Z,5.00
2022-10-06T14:51:42.484Z,4.80
2022-10-06T14:54:13.568Z,5.15
2022-10-06T14:56:44.012Z,5.18
2022-10-06T14:59:56.968Z,4.13
2022-10-06T15:02:28.648Z,4.13
2022-10-06T15:04:59.830Z,4.30
2022-10-06T15:07:47.538Z,4.10
2022-10-06T15:10:16.477Z,4.88
2022-10-06T15:12:46.880Z,4.90
2022-10-06T15:15:18.005Z,4.07
2022-10-06T15:18:26.566Z,4.00
2022-10-06T15:21:03.024Z,4.68
2022-10-06T15:23:32.453Z,4.05
2022-10-06T15:26:19.362Z,4.50
2022-10-06T15:29:06.642Z,6.25
2022-10-06T15:31:40.487Z,5.60
2022-10-06T15:34:13.136Z,5.53
2022-10-06T15:36:44.248Z,5.55
2022-10-06T15:39:17.767Z,5.72
2022-10-06T15:41:48.053Z,5.00
2022-10-06T15:44:18.234Z,4.72
2022-10-06T15:46:53.363Z,4.33
2022-10-06T15:49:25.446Z,4.20
2022-10-06T15:52:00.570Z,4.38
2022-10-06T15:54:38.791Z,4.10
2022-10-06T15:57:10.616Z,4.05
2022-10-06T15:59:41.656Z,4.00
2022-10-06T16:02:17.379Z,4.00
2022-10-06T16:05:09.767Z,4.33
2022-10-06T16:07:38.881Z,4.57
2022-10-06T16:10:08.225Z,7.65
2022-10-06T16:12:37.878Z,6.75
2022-10-06T16:15:07.560Z,5.10
2022-10-06T16:17:37.707Z,5.30
2022-10-06T16:20:07.088Z,4.35
2022-10-06T16:22:39.545Z,4.35
2022-10-06T16:25:09.721Z,4.60
2022-10-06T16:27:38.590Z,4.53
2022-10-06T16:30:08.546Z,4.85
2022-10-06T16:32:37.858Z,4.43
2022-10-06T16:35:08.411Z,4.45
2022-10-06T16:37:37.840Z,4.30
2022-10-06T16:40:07.587Z,4.28
2022-10-06T16:42:36.892Z,4.50
2022-10-06T16:45:10.469Z,4.30
2022-10-06T16:47:40.091Z,4.40
2022-10-06T16:50:09.907Z,4.60
2022-10-06T16:52:39.028Z,4.50
2022-10-06T16:55:09.898Z,4.13
2022-10-06T16:57:39.185Z,4.35
2022-10-06T17:00:08.596Z,4.53
2022-10-06T17:02:40.216Z,4.70
2022-10-06T17:05:10.172Z,5.30
2022-10-06T17:07:39.003Z,5.60
2022-10-06T17:10:20.231Z,5.15
2022-10-06T17:12:50.273Z,4.90
2022-10-06T17:15:19.598Z,4.88
2022-10-06T17:17:48.820Z,4.60
2022-10-06T17:20:17.869Z,5.00
2022-10-06T17:22:48.006Z,4.50
2022-10-06T17:25:17.360Z,4.65
2022-10-06T17:27:46.691Z,4.65
2022-10-06T17:30:17.921Z,4.65
2022-10-06T17:32:48.406Z,4.68
2022-10-06T17:35:20.851Z,4.50
2022-10-06T17:37:50.847Z,4.20
2022-10-06T17:40:20.640Z,4.53
2022-10-06T17:45:56.665Z,4.05
2022-10-06T17:48:28.052Z,3.88
2022-10-06T17:51:01.175Z,4.95
2022-10-06T17:53:30.845Z,4.37
2022-10-06T17:55:59.906Z,5.65
2022-10-06T17:58:31.486Z,4.00
2022-10-06T18:01:06.675Z,7.63
2022-10-06T18:03:37.640Z,6.55
2022-10-06T18:06:07.437Z,5.93
2022-10-06T18:08:35.922Z,7.00
2022-10-06T18:13:42.965Z,7.65
2022-10-06T18:16:17.731Z,6.40
2022-10-06T18:18:48.255Z,6.72
2022-10-06T18:21:19.266Z,4.78
2022-10-06T18:23:52.073Z,5.72
2022-10-06T18:26:22.547Z,5.03
2022-10-06T18:28:51.805Z,11.00
2022-10-06T18:31:21.260Z,6.80
2022-10-06T18:36:39.748Z,6.55
2022-10-06T18:39:09.048Z,7.78
2022-10-06T18:41:40.504Z,5.97
2022-10-06T18:44:13.890Z,6.05
2022-10-06T18:47:01.026Z,11.35
2022-10-06T18:49:29.979Z,12.27
2022-10-06T18:51:58.785Z,9.75
2022-10-06T18:54:32.501Z,9.87
2022-10-06T18:57:02.422Z,8.93
2022-10-06T18:59:32.215Z,7.10
2022-10-06T19:02:01.844Z,7.00
2022-10-06T19:04:33.717Z,7.27
2022-10-06T19:07:04.283Z,6.53
2022-10-06T19:09:33.355Z,6.90
2022-10-06T19:12:02.736Z,6.90
2022-10-06T19:14:38.787Z,6.40
2022-10-06T19:17:13.483Z,7.40
2022-10-06T19:19:46.271Z,8.10
2022-10-06T19:22:15.705Z,8.70
2022-10-06T19:24:45.906Z,7.80
2022-10-06T19:27:18.661Z,7.45
2022-10-06T19:29:52.334Z,7.38
2022-10-06T19:32:25.484Z,5.60
2022-10-06T19:34:58.837Z,5.13
2022-10-06T19:37:32.023Z,5.20
2022-10-06T19:40:01.047Z,5.53
2022-10-06T19:42:48.488Z,5.25
2022-10-06T19:45:18.831Z,4.70
2022-10-06T19:47:47.911Z,4.87
2022-10-06T19:50:17.878Z,4.45
2022-10-06T19:52:47.061Z,4.85
2022-10-06T19:55:15.840Z,4.60
2022-10-06T19:57:45.214Z,4.87
2022-10-06T20:00:14.529Z,5.03
2022-10-06T20:02:45.408Z,4.68
2022-10-06T20:05:17.165Z,4.95
2022-10-06T20:07:47.596Z,4.70
2022-10-06T20:10:16.921Z,4.93
2022-10-06T20:12:46.087Z,4.78
2022-10-06T20:15:15.056Z,5.00
2022-10-06T20:17:45.246Z,5.00
2022-10-06T20:20:15.304Z,5.28
2022-10-06T20:22:44.092Z,5.32
2022-10-06T20:25:13.335Z,6.05
2022-10-06T20:27:42.506Z,5.70
2022-10-06T20:30:12.237Z,6.15
2022-10-06T20:32:41.787Z,6.43
2022-10-06T20:35:10.990Z,6.87
2022-10-06T20:37:42.821Z,7.90
2022-10-06T20:40:30.984Z,8.38
2022-10-06T20:43:02.247Z,9.93
2022-10-06T20:45:31.310Z,10.57
2022-10-06T20:48:01.013Z,10.10
2022-10-06T20:50:33.201Z,11.30
2022-10-06T20:53:02.265Z,11.70
2022-10-06T20:55:31.233Z,11.70
2022-10-06T20:58:00.299Z,19.73
2022-10-06T21:00:29.115Z,15.32
2022-10-06T21:02:58.069Z,18.63
2022-10-06T21:05:26.842Z,10.60
2022-10-06T21:07:56.219Z,12.10
2022-10-06T21:10:24.757Z,22.48
2022-10-06T21:12:53.760Z,13.38
2022-10-06T21:15:22.648Z,11.80
2022-10-06T21:17:51.457Z,11.30
2022-10-06T21:20:20.030Z,11.27
2022-10-06T21:22:49.483Z,11.02
2022-10-06T21:25:18.304Z,10.68
2022-10-06T21:27:48.531Z,13.77
2022-10-06T21:30:17.290Z,14.90
2022-10-06T21:32:45.838Z,13.93
2022-10-06T21:35:14.948Z,11.60
2022-10-06T21:37:44.121Z,9.32
2022-10-06T21:40:13.741Z,9.88
2022-10-06T21:42:42.355Z,8.43
2022-10-06T21:45:11.974Z,8.05
2022-10-06T21:47:41.218Z,9.90
2022-10-06T21:50:10.612Z,16.08
2022-10-06T21:52:39.303Z,11.70
2022-10-06T21:55:08.650Z,10.98
2022-10-06T21:57:37.196Z,13.10
2022-10-06T22:00:12.287Z,15.57
2022-10-06T22:02:43.936Z,26.30
2022-10-06T22:05:12.745Z,16.13
2022-10-06T22:07:41.538Z,10.17
2022-10-06T22:10:10.592Z,15.63
2022-10-06T22:12:39.337Z,11.43
2022-10-06T22:15:08.361Z,9.63
2022-10-06T22:17:36.963Z,8.40
2022-10-06T22:20:06.336Z,11.05
2022-10-06T22:22:35.121Z,10.67
2022-10-06T22:25:04.144Z,8.55
2022-10-06T22:27:33.351Z,8.18
2022-10-06T22:30:02.221Z,8.05
2022-10-06T22:32:30.771Z,7.80
2022-10-06T22:34:59.823Z,13.70
2022-10-06T22:37:28.718Z,19.15
2022-10-06T22:39:57.740Z,10.65
2022-10-06T22:42:26.493Z,15.18
2022-10-06T22:44:55.318Z,13.05
2022-10-06T22:47:24.729Z,24.58
2022-10-06T22:49:56.847Z,9.00
2022-10-06T22:52:26.410Z,7.18
2022-10-06T22:54:56.104Z,6.05
2022-10-06T22:57:26.597Z,6.45
2022-10-06T22:59:56.227Z,6.32
2022-10-06T23:02:25.281Z,6.22
2022-10-06T23:04:54.761Z,7.30
2022-10-06T23:07:23.856Z,6.18
2022-10-06T23:09:52.766Z,9.43
2022-10-06T23:12:22.743Z,8.38
2022-10-06T23:14:52.353Z,6.43
2022-10-06T23:17:21.480Z,6.72
2022-10-06T23:19:50.750Z,6.40
2022-10-06T23:22:19.598Z,6.03
2022-10-06T23:24:48.844Z,6.78
2022-10-06T23:27:17.966Z,6.60
2022-10-06T23:29:46.926Z,7.20
2022-10-06T23:32:15.824Z,6.82
2022-10-06T23:34:45.715Z,7.15
2022-10-06T23:37:14.882Z,18.77
2022-10-06T23:39:44.321Z,8.65
2022-10-06T23:42:13.512Z,8.32
2022-10-06T23:44:44.080Z,7.20
2022-10-06T23:47:13.043Z,9.15
2022-10-06T23:49:44.561Z,12.23
2022-10-06T23:52:13.837Z,8.27
2022-10-06T23:54:42.867Z,7.97
2022-10-06T23:57:12.085Z,8.93
2022-10-06T23:59:40.964Z,7.80
